createdAt,value
2022-08-14T00:00:23.679Z,20.25
2022-08-14T00:01:25.553Z,20.25
2022-08-14T00:02:31.538Z,20.24
2022-08-14T00:03:34.299Z,20.25
2022-08-14T00:04:44.734Z,20.23
2022-08-14T00:05:47.134Z,20.21
2022-08-14T00:07:01.288Z,20.20
2022-08-14T00:08:03.429Z,20.17
2022-08-14T00:09:17.661Z,20.15
2022-08-14T00:10:52.998Z,20.14
2022-08-14T00:11:46.374Z,20.12
2022-08-14T00:12:53.408Z,20.11
2022-08-14T00:14:01.999Z,20.12
2022-08-14T00:15:09.711Z,20.12
2022-08-14T00:16:41.664Z,20.12
2022-08-14T00:17:47.569Z,20.10
2022-08-14T00:19:18.650Z,20.09
2022-08-14T00:20:14.059Z,20.07
2022-08-14T00:21:17.419Z,20.07
2022-08-14T00:22:44.308Z,20.06
2022-08-14T00:23:43.155Z,20.06
2022-08-14T00:24:45.338Z,20.07
2022-08-14T00:25:53.984Z,20.05
2022-08-14T00:27:02.047Z,20.06
2022-08-14T00:28:08.865Z,20.04
2022-08-14T00:29:11.082Z,20.03
2022-08-14T00:30:17.431Z,20.03
2022-08-14T00:31:32.960Z,20.03
2022-08-14T00:32:52.498Z,20.02
2022-08-14T00:34:35.172Z,19.96
2022-08-14T00:35:22.818Z,19.91
2022-08-14T00:36:48.033Z,19.89
2022-08-14T00:37:52.756Z,19.88
2022-08-14T00:38:54.847Z,19.88
2022-08-14T00:39:59.014Z,19.89
2022-08-14T00:41:02.895Z,19.89
2022-08-14T00:42:06.518Z,19.89
2022-08-14T00:43:09.711Z,19.88
2022-08-14T00:44:13.323Z,19.88
2022-08-14T00:45:16.923Z,19.88
2022-08-14T00:46:32.301Z,19.87
2022-08-14T00:47:43.245Z,19.86
2022-08-14T00:48:49.491Z,19.85
2022-08-14T00:49:56.239Z,19.84
2022-08-14T00:50:59.968Z,19.84
2022-08-14T00:52:02.559Z,19.83
2022-08-14T00:53:06.682Z,19.84
2022-08-14T00:54:16.908Z,19.84
2022-08-14T00:55:25.948Z,19.82
2022-08-14T00:56:31.336Z,19.82
2022-08-14T00:57:36.452Z,19.81
2022-08-14T00:58:45.398Z,19.81
2022-08-14T00:59:51.752Z,19.79
2022-08-14T01:00:57.706Z,19.79
2022-08-14T01:02:01.669Z,19.76
2022-08-14T01:03:04.988Z,19.76
2022-08-14T01:04:52.346Z,19.75
2022-08-14T01:05:50.848Z,19.75
2022-08-14T01:06:55.554Z,19.74
2022-08-14T01:07:58.504Z,19.74
2022-08-14T01:09:02.278Z,19.73
2022-08-14T01:10:05.448Z,19.73
2022-08-14T01:11:09.679Z,19.72
2022-08-14T01:12:12.283Z,19.70
2022-08-14T01:13:17.665Z,19.68
2022-08-14T01:14:26.101Z,19.68
2022-08-14T01:15:31.589Z,19.66
2022-08-14T01:16:55.566Z,19.65
2022-08-14T01:18:16.412Z,19.64
2022-08-14T01:19:37.923Z,19.62
2022-08-14T01:20:58.565Z,19.61
2022-08-14T01:22:07.364Z,19.59
2022-08-14T01:23:15.859Z,19.55
2022-08-14T01:24:22.985Z,19.54
2022-08-14T01:25:32.656Z,19.52
2022-08-14T01:26:38.936Z,19.50
2022-08-14T01:27:53.768Z,19.50
2022-08-14T01:29:00.394Z,19.52
2022-08-14T01:30:04.697Z,19.52
2022-08-14T01:31:09.859Z,19.52
2022-08-14T01:32:12.116Z,19.52
2022-08-14T01:33:18.558Z,19.52
2022-08-14T01:35:20.113Z,19.53
2022-08-14T01:36:03.525Z,19.52
2022-08-14T01:37:10.869Z,19.52
2022-08-14T01:38:15.029Z,19.51
2022-08-14T01:39:20.501Z,19.50
2022-08-14T01:40:25.648Z,19.50
2022-08-14T01:41:37.525Z,19.52
2022-08-14T01:42:42.877Z,19.48
2022-08-14T01:43:56.437Z,19.44
2022-08-14T01:44:59.318Z,19.39
2022-08-14T01:46:06.279Z,19.38
2022-08-14T01:47:12.355Z,19.35
2022-08-14T01:48:25.724Z,19.34
2022-08-14T01:49:35.316Z,19.34
2022-08-14T01:50:39.328Z,19.34
2022-08-14T01:51:44.622Z,19.34
2022-08-14T01:52:59.039Z,19.33
2022-08-14T01:54:06.852Z,19.34
2022-08-14T01:55:13.124Z,19.32
2022-08-14T01:56:19.403Z,19.32
2022-08-14T01:57:22.286Z,19.32
2022-08-14T01:58:29.941Z,19.33
2022-08-14T01:59:38.179Z,19.31
2022-08-14T02:00:41.789Z,19.31
2022-08-14T02:01:58.041Z,19.31
2022-08-14T02:03:01.857Z,19.31
2022-08-14T02:04:05.491Z,19.29
2022-08-14T02:05:38.468Z,19.28
2022-08-14T02:06:40.876Z,19.27
2022-08-14T02:07:55.879Z,19.26
2022-08-14T02:09:19.210Z,19.24
2022-08-14T02:10:28.937Z,19.23
2022-08-14T02:11:34.185Z,19.22
2022-08-14T02:12:36.696Z,19.21
2022-08-14T02:13:43.161Z,19.20
2022-08-14T02:14:59.065Z,19.20
2022-08-14T02:16:21.881Z,19.18
2022-08-14T02:17:25.099Z,19.18
2022-08-14T02:18:28.116Z,19.16
2022-08-14T02:19:35.693Z,19.16
2022-08-14T02:20:37.607Z,19.17
2022-08-14T02:21:47.080Z,19.16
2022-08-14T02:22:54.676Z,19.15
2022-08-14T02:23:58.305Z,19.15
2022-08-14T02:25:01.828Z,19.14
2022-08-14T02:26:24.994Z,19.14
2022-08-14T02:28:23.807Z,19.14
2022-08-14T02:29:00.166Z,19.13
2022-08-14T02:30:02.983Z,19.11
2022-08-14T02:31:08.895Z,19.11
2022-08-14T02:32:20.028Z,19.11
2022-08-14T02:33:33.722Z,19.08
2022-08-14T02:34:43.075Z,19.08
2022-08-14T02:35:53.233Z,19.07
2022-08-14T02:37:06.931Z,19.07
2022-08-14T02:38:11.825Z,19.06
2022-08-14T02:39:34.595Z,19.05
2022-08-14T02:40:40.490Z,19.04
2022-08-14T02:41:52.442Z,19.04
2022-08-14T02:43:00.154Z,19.03
2022-08-14T02:44:03.921Z,19.01
2022-08-14T02:45:10.178Z,19.03
2022-08-14T02:46:13.248Z,19.03
2022-08-14T02:47:23.071Z,19.02
2022-08-14T02:49:01.971Z,19.01
2022-08-14T02:49:59.456Z,19.02
2022-08-14T02:51:02.548Z,19.01
2022-08-14T02:52:16.035Z,19.01
2022-08-14T02:53:31.214Z,18.99
2022-08-14T02:54:34.310Z,18.98
2022-08-14T02:55:38.009Z,18.97
2022-08-14T02:57:15.452Z,18.94
2022-08-14T02:58:06.168Z,18.94
2022-08-14T02:59:10.133Z,18.92
2022-08-14T03:00:17.925Z,18.91
2022-08-14T03:01:24.106Z,18.91
2022-08-14T03:02:56.098Z,18.89
2022-08-14T03:03:56.825Z,18.88
2022-08-14T03:04:58.670Z,18.85
2022-08-14T03:06:01.665Z,18.85
2022-08-14T03:07:07.408Z,18.84
2022-08-14T03:08:16.159Z,18.82
2022-08-14T03:09:21.030Z,18.83
2022-08-14T03:10:27.778Z,18.82
2022-08-14T03:11:34.686Z,18.81
2022-08-14T03:12:39.506Z,18.79
2022-08-14T03:13:43.274Z,18.79
2022-08-14T03:14:48.878Z,18.79
2022-08-14T03:15:55.615Z,18.79
2022-08-14T03:17:00.952Z,18.78
2022-08-14T03:18:03.057Z,18.78
2022-08-14T03:19:08.162Z,18.78
2022-08-14T03:20:13.620Z,18.76
2022-08-14T03:21:20.396Z,18.73
2022-08-14T03:22:23.483Z,18.70
2022-08-14T03:23:37.701Z,18.67
2022-08-14T03:24:40.768Z,18.63
2022-08-14T03:25:43.982Z,18.62
2022-08-14T03:26:47.698Z,18.64
2022-08-14T03:28:29.685Z,18.63
2022-08-14T03:29:35.734Z,18.63
2022-08-14T03:30:40.998Z,18.65
2022-08-14T03:31:43.534Z,18.65
2022-08-14T03:32:49.778Z,18.64
2022-08-14T03:33:54.487Z,18.64
2022-08-14T03:34:58.392Z,18.63
2022-08-14T03:37:28.952Z,18.62
2022-08-14T03:37:38.474Z,18.63
2022-08-14T03:38:50.959Z,18.62
2022-08-14T03:40:18.531Z,18.60
2022-08-14T03:41:24.399Z,18.61
2022-08-14T03:42:36.013Z,18.59
2022-08-14T03:43:41.221Z,18.59
2022-08-14T03:45:27.735Z,18.59
2022-08-14T03:46:39.220Z,18.57
2022-08-14T03:47:46.625Z,18.58
2022-08-14T03:48:54.394Z,18.56
2022-08-14T03:49:58.297Z,18.57
2022-08-14T03:51:01.519Z,18.56
2022-08-14T03:52:17.762Z,18.54
2022-08-14T03:53:27.487Z,18.53
2022-08-14T03:54:30.708Z,18.53
2022-08-14T03:55:33.649Z,18.51
2022-08-14T03:56:37.202Z,18.51
2022-08-14T03:57:40.729Z,18.50
2022-08-14T03:58:45.946Z,18.50
2022-08-14T03:59:49.669Z,18.50
2022-08-14T04:00:51.668Z,18.51
2022-08-14T04:02:01.512Z,18.50
2022-08-14T04:03:06.443Z,18.51
2022-08-14T04:04:10.174Z,18.50
2022-08-14T04:05:13.186Z,18.49
2022-08-14T04:06:21.783Z,18.45
2022-08-14T04:07:32.759Z,18.43
2022-08-14T04:08:39.979Z,18.43
2022-08-14T04:09:43.889Z,18.42
2022-08-14T04:10:47.235Z,18.41
2022-08-14T04:11:49.408Z,18.40
2022-08-14T04:12:53.615Z,18.39
2022-08-14T04:13:58.148Z,18.38
2022-08-14T04:15:01.052Z,18.36
2022-08-14T04:16:05.064Z,18.36
2022-08-14T04:17:10.111Z,18.37
2022-08-14T04:18:13.388Z,18.37
2022-08-14T04:19:23.949Z,18.37
2022-08-14T04:20:26.472Z,18.37
2022-08-14T04:21:30.787Z,18.36
2022-08-14T04:22:44.139Z,18.35
2022-08-14T04:23:56.913Z,18.35
2022-08-14T04:25:04.484Z,18.35
2022-08-14T04:26:14.364Z,18.34
2022-08-14T04:27:18.081Z,18.33
2022-08-14T04:29:07.530Z,18.33
2022-08-14T04:29:45.301Z,18.33
2022-08-14T04:30:47.604Z,18.31
2022-08-14T04:33:01.232Z,18.30
2022-08-14T04:33:20.320Z,18.29
2022-08-14T04:34:27.114Z,18.28
2022-08-14T04:35:53.546Z,18.29
2022-08-14T04:37:10.698Z,18.28
2022-08-14T04:38:37.025Z,18.28
2022-08-14T04:39:59.189Z,18.27
2022-08-14T04:41:18.864Z,18.26
2022-08-14T04:42:47.120Z,18.26
2022-08-14T04:43:54.346Z,18.24
2022-08-14T04:45:01.013Z,18.24
2022-08-14T04:46:04.340Z,18.23
2022-08-14T04:47:27.128Z,18.23
2022-08-14T04:48:43.133Z,18.22
2022-08-14T04:49:57.418Z,18.22
2022-08-14T04:51:00.685Z,18.21
2022-08-14T04:52:18.974Z,18.21
2022-08-14T04:53:35.679Z,18.23
2022-08-14T04:54:38.203Z,18.25
2022-08-14T04:55:42.915Z,18.30
2022-08-14T04:56:45.435Z,18.33
2022-08-14T04:57:49.220Z,18.36
2022-08-14T04:58:57.642Z,18.39
2022-08-14T05:00:01.901Z,18.43
2022-08-14T05:01:06.231Z,18.47
2022-08-14T05:02:17.186Z,18.50
2022-08-14T05:03:21.235Z,18.54
2022-08-14T05:04:25.893Z,18.57
2022-08-14T05:05:28.283Z,18.60
2022-08-14T05:06:38.821Z,18.64
2022-08-14T05:07:54.129Z,18.66
2022-08-14T05:09:05.141Z,18.70
2022-08-14T05:10:12.767Z,18.71
2022-08-14T05:11:19.182Z,18.74
2022-08-14T05:13:24.631Z,18.75
2022-08-14T05:14:16.620Z,18.78
2022-08-14T05:15:10.410Z,18.83
2022-08-14T05:16:13.183Z,18.85
2022-08-14T05:17:17.814Z,18.89
2022-08-14T05:19:17.010Z,18.93
2022-08-14T05:21:04.502Z,18.97
2022-08-14T05:21:57.499Z,19.01
2022-08-14T05:22:32.084Z,19.04
2022-08-14T05:23:37.207Z,19.07
2022-08-14T05:24:40.660Z,19.12
2022-08-14T05:25:43.222Z,19.16
2022-08-14T05:26:47.210Z,19.18
2022-08-14T05:27:49.229Z,19.22
2022-08-14T05:28:52.119Z,19.24
2022-08-14T05:29:56.999Z,19.27
2022-08-14T05:31:03.737Z,19.31
2022-08-14T05:32:07.469Z,19.33
2022-08-14T05:33:10.521Z,19.36
2022-08-14T05:34:12.521Z,19.39
2022-08-14T05:35:15.551Z,19.42
2022-08-14T05:36:17.673Z,19.45
2022-08-14T05:37:20.613Z,19.48
2022-08-14T05:38:31.829Z,19.51
2022-08-14T05:39:40.841Z,19.55
2022-08-14T05:40:43.633Z,19.58
2022-08-14T05:41:53.392Z,19.61
2022-08-14T05:42:56.678Z,19.64
2022-08-14T05:44:01.994Z,19.66
2022-08-14T05:45:11.339Z,19.69
2022-08-14T05:46:22.830Z,19.70
2022-08-14T05:47:34.074Z,19.74
2022-08-14T05:48:43.258Z,19.76
2022-08-14T05:49:46.142Z,19.79
2022-08-14T05:50:49.222Z,19.82
2022-08-14T05:51:51.381Z,19.84
2022-08-14T05:52:55.250Z,19.86
2022-08-14T05:54:01.617Z,19.88
2022-08-14T05:55:16.770Z,19.91
2022-08-14T05:56:25.850Z,19.96
2022-08-14T05:57:30.864Z,19.99
2022-08-14T05:58:41.361Z,20.02
2022-08-14T05:59:43.764Z,20.04
2022-08-14T06:00:47.696Z,20.06
2022-08-14T06:01:51.190Z,20.08
2022-08-14T06:02:56.135Z,20.11
2022-08-14T06:03:59.218Z,20.14
2022-08-14T06:05:03.081Z,20.17
2022-08-14T06:06:05.507Z,20.21
2022-08-14T06:07:08.377Z,20.23
2022-08-14T06:08:21.731Z,20.26
2022-08-14T06:09:40.722Z,20.31
2022-08-14T06:10:42.922Z,20.35
2022-08-14T06:11:45.800Z,20.35
2022-08-14T06:12:56.028Z,20.39
2022-08-14T06:14:00.018Z,20.41
2022-08-14T06:15:02.155Z,20.45
2022-08-14T06:16:11.325Z,20.47
2022-08-14T06:17:24.708Z,20.50
2022-08-14T06:18:32.140Z,20.54
2022-08-14T06:19:34.558Z,20.56
2022-08-14T06:20:37.758Z,20.58
2022-08-14T06:21:41.962Z,20.60
2022-08-14T06:22:47.144Z,20.62
2022-08-14T06:23:53.122Z,20.66
2022-08-14T06:24:55.088Z,20.69
2022-08-14T06:25:58.304Z,20.71
2022-08-14T06:27:04.462Z,20.74
2022-08-14T06:28:27.526Z,20.78
2022-08-14T06:29:32.310Z,20.80
2022-08-14T06:30:46.325Z,20.82
2022-08-14T06:32:00.266Z,20.86
2022-08-14T06:33:15.773Z,20.89
2022-08-14T06:35:10.642Z,20.92
2022-08-14T06:35:40.728Z,20.91
2022-08-14T06:36:42.576Z,20.94
2022-08-14T06:37:47.697Z,20.95
2022-08-14T06:38:51.698Z,21.00
2022-08-14T06:39:54.808Z,21.01
2022-08-14T06:40:58.175Z,21.02
2022-08-14T06:42:00.328Z,21.05
2022-08-14T06:43:06.967Z,21.07
2022-08-14T06:44:09.720Z,21.09
2022-08-14T06:45:13.497Z,21.11
2022-08-14T06:46:23.286Z,21.15
2022-08-14T06:47:37.917Z,21.17
2022-08-14T06:48:49.169Z,21.20
2022-08-14T06:49:57.855Z,21.21
2022-08-14T06:51:00.362Z,21.21
2022-08-14T06:52:03.784Z,21.23
2022-08-14T06:53:07.606Z,21.26
2022-08-14T06:54:10.685Z,21.26
2022-08-14T06:55:16.317Z,21.28
2022-08-14T06:56:19.335Z,21.29
2022-08-14T06:57:22.127Z,21.29
2022-08-14T06:58:29.224Z,21.29
2022-08-14T06:59:33.709Z,21.29
2022-08-14T07:00:36.841Z,21.32
2022-08-14T07:02:00.025Z,21.34
2022-08-14T07:03:21.752Z,21.37
2022-08-14T07:04:43.658Z,21.40
2022-08-14T07:05:55.456Z,21.41
2022-08-14T07:06:59.346Z,21.43
2022-08-14T07:08:01.705Z,21.46
2022-08-14T07:09:05.504Z,21.46
2022-08-14T07:10:16.791Z,21.47
2022-08-14T07:11:20.821Z,21.46
2022-08-14T07:12:52.093Z,21.46
2022-08-14T07:13:48.736Z,21.49
2022-08-14T07:14:56.933Z,21.51
2022-08-14T07:16:05.901Z,21.53
2022-08-14T07:17:08.488Z,21.53
2022-08-14T07:18:13.425Z,21.51
2022-08-14T07:19:17.405Z,21.54
2022-08-14T07:20:30.930Z,21.54
2022-08-14T07:21:34.305Z,21.52
2022-08-14T07:22:55.828Z,21.52
2022-08-14T07:23:59.521Z,21.54
2022-08-14T07:25:01.482Z,21.55
2022-08-14T07:26:06.405Z,21.59
2022-08-14T07:27:12.144Z,21.63
2022-08-14T07:28:20.629Z,21.65
2022-08-14T07:29:26.172Z,21.69
2022-08-14T07:30:34.091Z,21.72
2022-08-14T07:31:38.234Z,21.73
2022-08-14T07:32:40.217Z,21.75
2022-08-14T07:33:49.912Z,21.78
2022-08-14T07:34:52.899Z,21.83
2022-08-14T07:36:03.267Z,21.84
2022-08-14T07:37:11.015Z,21.86
2022-08-14T07:38:21.094Z,21.88
2022-08-14T07:39:27.794Z,21.88
2022-08-14T07:40:30.968Z,21.92
2022-08-14T07:41:35.561Z,21.92
2022-08-14T07:42:38.998Z,21.91
2022-08-14T07:43:44.123Z,21.92
2022-08-14T07:44:50.737Z,21.95
2022-08-14T07:45:54.059Z,21.97
2022-08-14T07:46:57.135Z,21.98
2022-08-14T07:47:59.694Z,22.02
2022-08-14T07:49:02.616Z,22.08
2022-08-14T07:50:12.301Z,22.15
2022-08-14T07:51:21.909Z,22.15
2022-08-14T07:52:31.000Z,22.16
2022-08-14T07:53:39.284Z,22.19
2022-08-14T07:54:44.092Z,22.22
2022-08-14T07:55:46.672Z,22.25
2022-08-14T07:57:12.671Z,22.28
2022-08-14T07:58:34.189Z,22.30
2022-08-14T07:59:46.945Z,22.29
2022-08-14T08:00:51.326Z,22.30
2022-08-14T08:02:00.104Z,22.29
2022-08-14T08:03:03.009Z,22.28
2022-08-14T08:04:16.541Z,22.29
2022-08-14T08:05:24.358Z,22.35
2022-08-14T08:06:30.569Z,22.38
2022-08-14T08:07:33.089Z,22.37
2022-08-14T08:08:36.175Z,22.38
2022-08-14T08:09:45.716Z,22.39
2022-08-14T08:11:01.521Z,22.39
2022-08-14T08:12:09.505Z,22.45
2022-08-14T08:13:23.929Z,22.52
2022-08-14T08:14:26.892Z,22.58
2022-08-14T08:15:32.731Z,22.67
2022-08-14T08:16:36.648Z,22.71
2022-08-14T08:17:42.793Z,22.70
2022-08-14T08:19:01.791Z,22.72
2022-08-14T08:20:12.876Z,22.72
2022-08-14T08:21:16.542Z,22.75
2022-08-14T08:22:22.007Z,22.78
2022-08-14T08:23:30.306Z,22.78
2022-08-14T08:24:43.238Z,22.83
2022-08-14T08:25:49.284Z,22.80
2022-08-14T08:26:51.193Z,22.79
2022-08-14T08:27:59.333Z,22.78
2022-08-14T08:29:02.276Z,22.75
2022-08-14T08:30:09.968Z,22.80
2022-08-14T08:31:14.299Z,22.79
2022-08-14T08:32:16.175Z,22.81
2022-08-14T08:33:20.284Z,22.89
2022-08-14T08:34:23.547Z,22.92
2022-08-14T08:35:46.297Z,22.96
2022-08-14T08:36:50.260Z,22.95
2022-08-14T08:38:14.163Z,22.95
2022-08-14T08:39:30.766Z,23.02
2022-08-14T08:40:47.620Z,23.01
2022-08-14T08:41:53.874Z,23.04
2022-08-14T08:42:59.214Z,23.04
2022-08-14T08:44:05.492Z,23.05
2022-08-14T08:45:11.978Z,23.08
2022-08-14T08:46:21.640Z,23.04
2022-08-14T08:47:25.252Z,23.03
2022-08-14T08:48:31.619Z,23.00
2022-08-14T08:49:48.248Z,22.97
2022-08-14T08:50:51.913Z,23.11
2022-08-14T08:52:04.175Z,23.09
2022-08-14T08:53:10.669Z,23.09
2022-08-14T08:54:18.653Z,23.07
2022-08-14T08:55:30.759Z,23.17
2022-08-14T08:56:40.437Z,23.24
2022-08-14T08:57:42.947Z,23.24
2022-08-14T08:58:45.803Z,23.29
2022-08-14T08:59:47.746Z,23.25
2022-08-14T09:01:00.558Z,23.29
2022-08-14T09:02:05.335Z,23.35
2022-08-14T09:03:10.567Z,23.31
2022-08-14T09:04:17.268Z,23.33
2022-08-14T09:05:20.467Z,23.37
2022-08-14T09:07:09.298Z,23.37
2022-08-14T09:07:47.727Z,23.38
2022-08-14T09:08:53.737Z,23.39
2022-08-14T09:10:00.744Z,23.34
2022-08-14T09:11:19.213Z,23.28
2022-08-14T09:12:23.337Z,23.25
2022-08-14T09:13:27.224Z,23.28
2022-08-14T09:14:35.039Z,23.28
2022-08-14T09:15:45.237Z,23.29
2022-08-14T09:16:48.520Z,23.26
2022-08-14T09:18:19.447Z,23.23
2022-08-14T09:19:24.113Z,23.29
2022-08-14T09:20:30.729Z,23.29
2022-08-14T09:21:34.326Z,23.33
2022-08-14T09:22:47.854Z,23.34
2022-08-14T09:24:28.119Z,23.42
2022-08-14T09:25:19.883Z,23.43
2022-08-14T09:26:23.038Z,23.47
2022-08-14T09:27:31.780Z,23.50
2022-08-14T09:28:34.679Z,23.51
2022-08-14T09:29:36.586Z,23.52
2022-08-14T09:30:44.256Z,23.49
2022-08-14T09:31:54.115Z,23.48
2022-08-14T09:33:30.708Z,23.44
2022-08-14T09:34:58.720Z,23.48
2022-08-14T09:36:47.254Z,23.60
2022-08-14T09:38:00.571Z,23.61
2022-08-14T09:39:22.920Z,23.64
2022-08-14T09:40:38.981Z,23.64
2022-08-14T09:42:20.351Z,23.63
2022-08-14T09:43:31.816Z,23.63
2022-08-14T09:44:46.070Z,23.60
2022-08-14T09:45:53.873Z,23.55
2022-08-14T09:46:57.901Z,23.52
2022-08-14T09:48:00.875Z,23.53
2022-08-14T09:49:05.974Z,23.47
2022-08-14T09:50:17.337Z,23.51
2022-08-14T09:51:25.490Z,23.53
2022-08-14T09:52:33.956Z,23.55
2022-08-14T09:54:19.236Z,23.51
2022-08-14T09:55:19.214Z,23.45
2022-08-14T09:56:30.943Z,23.44
2022-08-14T09:57:33.605Z,23.50
2022-08-14T09:58:39.559Z,23.54
2022-08-14T09:59:46.311Z,23.52
2022-08-14T10:01:00.578Z,23.60
2022-08-14T10:02:03.252Z,23.64
2022-08-14T10:03:06.697Z,23.68
2022-08-14T10:04:34.839Z,23.74
2022-08-14T10:05:41.682Z,23.76
2022-08-14T10:06:45.241Z,23.77
2022-08-14T10:07:53.783Z,23.74
2022-08-14T10:09:16.647Z,23.74
2022-08-14T10:10:30.011Z,23.84
2022-08-14T10:11:43.316Z,23.88
2022-08-14T10:12:48.550Z,23.83
2022-08-14T10:13:58.868Z,23.76
2022-08-14T10:15:01.085Z,23.67
2022-08-14T10:16:06.192Z,23.64
2022-08-14T10:17:29.559Z,23.59
2022-08-14T10:18:36.020Z,23.53
2022-08-14T10:19:49.399Z,23.52
2022-08-14T10:20:57.691Z,23.57
2022-08-14T10:23:12.977Z,23.66
2022-08-14T10:23:33.921Z,23.86
2022-08-14T10:24:40.128Z,23.90
2022-08-14T10:25:50.699Z,24.03
2022-08-14T10:27:00.529Z,23.95
2022-08-14T10:28:04.253Z,23.98
2022-08-14T10:29:19.632Z,24.00
2022-08-14T10:30:34.985Z,23.95
2022-08-14T10:31:44.907Z,23.87
2022-08-14T10:32:52.152Z,23.85
2022-08-14T10:34:03.174Z,23.81
2022-08-14T10:35:13.499Z,23.80
2022-08-14T10:36:37.038Z,23.80
2022-08-14T10:37:48.150Z,23.89
2022-08-14T10:38:58.033Z,23.98
2022-08-14T10:40:10.792Z,23.96
2022-08-14T10:41:46.591Z,23.99
2022-08-14T10:42:56.872Z,23.98
2022-08-14T10:44:20.858Z,24.10
2022-08-14T10:45:26.556Z,24.14
2022-08-14T10:47:41.511Z,24.19
2022-08-14T10:48:34.423Z,24.16
2022-08-14T10:49:43.254Z,24.17
2022-08-14T10:50:49.329Z,24.14
2022-08-14T10:52:05.920Z,24.15
2022-08-14T10:53:08.344Z,24.21
2022-08-14T10:54:16.319Z,24.17
2022-08-14T10:55:39.397Z,24.14
2022-08-14T10:56:51.855Z,24.13
2022-08-14T10:57:57.567Z,24.07
2022-08-14T10:59:03.947Z,24.08
2022-08-14T11:00:14.027Z,24.13
2022-08-14T11:01:32.484Z,24.17
2022-08-14T11:02:54.218Z,24.14
2022-08-14T11:03:58.557Z,24.24
2022-08-14T11:05:05.012Z,24.23
2022-08-14T11:06:19.744Z,24.22
2022-08-14T11:07:21.685Z,24.21
2022-08-14T11:08:32.669Z,24.22
2022-08-14T11:09:34.863Z,24.21
2022-08-14T11:10:45.532Z,24.22
2022-08-14T11:11:56.483Z,24.25
2022-08-14T11:13:21.244Z,24.27
2022-08-14T11:14:26.924Z,24.23
2022-08-14T11:15:32.447Z,24.27
2022-08-14T11:16:35.986Z,24.29
2022-08-14T11:17:41.259Z,24.28
2022-08-14T11:18:51.166Z,24.28
2022-08-14T11:19:58.251Z,24.31
2022-08-14T11:21:02.381Z,24.31
2022-08-14T11:22:06.448Z,24.31
2022-08-14T11:23:11.793Z,24.40
2022-08-14T11:24:54.119Z,24.36
2022-08-14T11:25:44.380Z,24.35
2022-08-14T11:26:59.678Z,24.40
2022-08-14T11:28:05.883Z,24.40
2022-08-14T11:29:15.330Z,24.44
2022-08-14T11:30:50.639Z,24.43
2022-08-14T11:31:44.540Z,24.38
2022-08-14T11:32:54.857Z,24.45
2022-08-14T11:33:59.508Z,24.44
2022-08-14T11:35:03.214Z,24.39
2022-08-14T11:36:17.908Z,24.37
2022-08-14T11:37:33.832Z,24.36
2022-08-14T11:38:45.121Z,24.35
2022-08-14T11:39:48.611Z,24.32
2022-08-14T11:40:54.468Z,24.29
2022-08-14T11:41:58.042Z,24.31
2022-08-14T11:43:03.268Z,24.36
2022-08-14T11:44:17.599Z,24.36
2022-08-14T11:45:23.547Z,24.52
2022-08-14T11:46:30.505Z,24.56
2022-08-14T11:47:44.110Z,24.56
2022-08-14T11:49:05.417Z,24.56
2022-08-14T11:50:33.896Z,24.53
2022-08-14T11:51:54.003Z,24.61
2022-08-14T11:52:57.292Z,24.75
2022-08-14T11:54:08.438Z,24.73
2022-08-14T11:55:12.651Z,24.67
2022-08-14T11:56:16.083Z,24.68
2022-08-14T11:57:22.875Z,24.64
2022-08-14T11:58:28.779Z,24.61
2022-08-14T11:59:33.399Z,24.60
2022-08-14T12:00:47.737Z,24.58
2022-08-14T12:01:50.154Z,24.56
2022-08-14T12:03:02.965Z,24.57
2022-08-14T12:04:21.764Z,24.58
2022-08-14T12:05:36.549Z,24.61
2022-08-14T12:06:49.028Z,24.78
2022-08-14T12:07:53.235Z,24.87
2022-08-14T12:08:57.005Z,24.91
2022-08-14T12:10:25.592Z,24.87
2022-08-14T12:11:26.348Z,24.79
2022-08-14T12:12:36.030Z,24.74
2022-08-14T12:13:38.918Z,24.67
2022-08-14T12:14:53.638Z,24.71
2022-08-14T12:16:00.938Z,24.77
2022-08-14T12:17:13.031Z,24.75
2022-08-14T12:18:19.618Z,24.75
2022-08-14T12:19:22.921Z,24.78
2022-08-14T12:20:32.575Z,24.86
2022-08-14T12:21:35.964Z,24.87
2022-08-14T12:22:42.361Z,24.82
2022-08-14T12:23:47.208Z,24.77
2022-08-14T12:24:52.629Z,24.69
2022-08-14T12:26:12.211Z,24.65
2022-08-14T12:27:41.512Z,24.67
2022-08-14T12:29:00.476Z,24.73
2022-08-14T12:30:02.844Z,24.73
2022-08-14T12:31:16.793Z,24.76
2022-08-14T12:32:22.767Z,24.87
2022-08-14T12:33:31.103Z,24.83
2022-08-14T12:34:37.440Z,24.79
2022-08-14T12:35:42.633Z,24.76
2022-08-14T12:36:45.781Z,24.76
2022-08-14T12:37:50.588Z,24.74
2022-08-14T12:38:55.420Z,24.70
2022-08-14T12:40:09.952Z,24.67
2022-08-14T12:41:20.467Z,24.73
2022-08-14T12:42:37.911Z,24.88
2022-08-14T12:43:51.360Z,24.84
2022-08-14T12:44:58.640Z,24.86
2022-08-14T12:46:01.748Z,24.83
2022-08-14T12:47:07.827Z,24.80
2022-08-14T12:48:21.085Z,24.80
2022-08-14T12:49:25.961Z,24.83
2022-08-14T12:50:37.426Z,24.89
2022-08-14T12:51:42.719Z,24.96
2022-08-14T12:52:58.724Z,25.07
2022-08-14T12:54:27.669Z,25.13
2022-08-14T12:56:17.838Z,25.15
2022-08-14T12:57:06.166Z,25.09
2022-08-14T12:58:35.180Z,25.04
2022-08-14T12:59:37.098Z,24.96
2022-08-14T13:01:14.343Z,24.94
2022-08-14T13:02:25.526Z,25.01
2022-08-14T13:03:30.654Z,25.25
2022-08-14T13:04:35.410Z,25.26
2022-08-14T13:05:38.662Z,25.25
2022-08-14T13:06:44.721Z,25.20
2022-08-14T13:07:54.107Z,25.20
2022-08-14T13:08:59.956Z,25.19
2022-08-14T13:10:12.688Z,25.15
2022-08-14T13:11:31.163Z,25.11
2022-08-14T13:12:43.142Z,25.07
2022-08-14T13:14:00.111Z,24.99
2022-08-14T13:15:09.068Z,24.95
2022-08-14T13:16:20.615Z,24.89
2022-08-14T13:17:42.963Z,24.91
2022-08-14T13:18:47.969Z,24.92
2022-08-14T13:20:01.370Z,24.96
2022-08-14T13:21:05.810Z,24.96
2022-08-14T13:22:10.338Z,24.92
2022-08-14T13:23:37.331Z,25.08
2022-08-14T13:24:39.818Z,25.09
2022-08-14T13:25:55.962Z,25.13
2022-08-14T13:27:04.110Z,25.19
2022-08-14T13:28:10.979Z,25.32
2022-08-14T13:29:15.638Z,25.38
2022-08-14T13:30:24.042Z,25.36
2022-08-14T13:31:32.359Z,25.35
2022-08-14T13:32:39.377Z,25.34
2022-08-14T13:33:42.790Z,25.30
2022-08-14T13:34:49.406Z,25.24
2022-08-14T13:35:56.175Z,25.18
2022-08-14T13:37:04.267Z,25.16
2022-08-14T13:38:06.781Z,25.22
2022-08-14T13:39:18.006Z,25.31
2022-08-14T13:40:21.675Z,25.36
2022-08-14T13:41:31.788Z,25.36
2022-08-14T13:42:43.654Z,25.30
2022-08-14T13:43:59.964Z,25.35
2022-08-14T13:45:06.484Z,25.38
2022-08-14T13:46:11.426Z,25.39
2022-08-14T13:47:15.252Z,25.37
2022-08-14T13:48:32.308Z,25.41
2022-08-14T13:49:37.496Z,25.41
2022-08-14T13:50:42.169Z,25.40
2022-08-14T13:51:48.305Z,25.35
2022-08-14T13:52:55.040Z,25.32
2022-08-14T13:54:10.238Z,25.28
2022-08-14T13:55:19.168Z,25.30
2022-08-14T13:56:36.217Z,25.46
2022-08-14T13:57:49.409Z,25.51
2022-08-14T13:59:07.793Z,25.49
2022-08-14T14:00:14.142Z,25.48
2022-08-14T14:01:22.779Z,25.49
2022-08-14T14:02:34.048Z,25.46
2022-08-14T14:03:38.138Z,25.42
2022-08-14T14:04:46.223Z,25.47
2022-08-14T14:05:54.735Z,25.53
2022-08-14T14:07:02.019Z,25.62
2022-08-14T14:08:18.609Z,25.70
2022-08-14T14:09:32.594Z,25.67
2022-08-14T14:10:47.026Z,25.62
2022-08-14T14:11:52.855Z,25.58
2022-08-14T14:12:56.595Z,25.58
2022-08-14T14:14:00.257Z,25.56
2022-08-14T14:15:05.044Z,25.61
2022-08-14T14:16:09.575Z,25.61
2022-08-14T14:17:14.958Z,25.62
2022-08-14T14:18:34.276Z,25.55
2022-08-14T14:19:38.212Z,25.47
2022-08-14T14:20:44.882Z,25.42
2022-08-14T14:21:50.129Z,25.38
2022-08-14T14:23:02.537Z,25.34
2022-08-14T14:24:06.516Z,25.31
2022-08-14T14:25:10.286Z,25.32
2022-08-14T14:26:21.791Z,25.37
2022-08-14T14:27:40.312Z,25.39
2022-08-14T14:28:49.452Z,25.44
2022-08-14T14:29:55.595Z,25.41
2022-08-14T14:31:06.693Z,25.40
2022-08-14T14:32:11.381Z,25.38
2022-08-14T14:34:52.381Z,25.40
2022-08-14T14:35:55.469Z,25.44
2022-08-14T14:37:02.973Z,25.51
2022-08-14T14:38:08.790Z,25.56
2022-08-14T14:39:19.422Z,25.56
2022-08-14T14:40:52.968Z,25.60
2022-08-14T14:41:56.226Z,25.65
2022-08-14T14:43:03.091Z,25.66
2022-08-14T14:44:08.944Z,25.61
2022-08-14T14:45:15.520Z,25.62
2022-08-14T14:46:18.710Z,25.64
2022-08-14T14:47:22.697Z,25.60
2022-08-14T14:48:29.179Z,25.55
2022-08-14T14:49:51.479Z,25.58
2022-08-14T14:50:56.914Z,25.66
2022-08-14T14:52:00.534Z,25.64
2022-08-14T14:53:12.892Z,25.60